createdAt,value
2016-08-01T00:00:29.322Z,69.12
2016-08-01T00:01:33.717Z,69.07
2016-08-01T00:02:36.936Z,69.25
2016-08-01T00:03:37.535Z,69.09
2016-08-01T00:04:35.473Z,69.09
2016-08-01T00:05:27.763Z,68.75
2016-08-01T00:06:37.777Z,67.86
2016-08-01T00:07:39.674Z,67.71
2016-08-01T00:08:38.739Z,67.64
2016-08-01T00:09:41.104Z,68.39
2016-08-01T00:10:30.993Z,68.61
2016-08-01T00:11:26.106Z,68.82
2016-08-01T00:12:37.702Z,67.87
2016-08-01T00:13:37.949Z,68.67
2016-08-01T00:14:29.966Z,68.79
2016-08-01T00:15:36.447Z,68.77
2016-08-01T00:16:40.929Z,68.90
2016-08-01T00:17:36.692Z,68.93
2016-08-01T00:18:31.362Z,68.92
2016-08-01T00:19:37.826Z,69.08
2016-08-01T00:20:34.264Z,69.00
2016-08-01T00:21:33.925Z,68.95
2016-08-01T00:22:33.254Z,68.77
2016-08-01T00:23:37.417Z,68.91
2016-08-01T00:24:35.691Z,68.86
2016-08-01T00:25:38.634Z,68.64
2016-08-01T00:26:37.866Z,68.26
2016-08-01T00:27:39.000Z,68.82
2016-08-01T00:28:34.482Z,68.80
2016-08-01T00:29:33.450Z,68.92
2016-08-01T00:30:37.522Z,69.03
2016-08-01T00:31:32.012Z,68.83
2016-08-01T00:32:41.698Z,68.67
2016-08-01T00:33:33.419Z,68.72
2016-08-01T00:34:39.151Z,68.83
2016-08-01T00:35:40.101Z,68.71
2016-08-01T00:36:34.265Z,68.78
2016-08-01T00:37:32.238Z,68.68
2016-08-01T00:38:31.596Z,68.33
2016-08-01T00:39:32.744Z,68.14
2016-08-01T00:40:31.643Z,67.06
2016-08-01T00:41:33.741Z,67.95
2016-08-01T00:42:42.859Z,67.93
2016-08-01T00:43:34.026Z,67.92
2016-08-01T00:44:12.636Z,68.04
2016-08-01T00:45:35.712Z,68.02
2016-08-01T00:46:31.354Z,67.81
2016-08-01T00:47:36.567Z,67.81
2016-08-01T00:49:38.478Z,67.90
2016-08-01T00:50:46.286Z,67.84
2016-08-01T00:51:33.986Z,67.88
2016-08-01T00:52:38.966Z,67.85
2016-08-01T00:53:28.819Z,67.75
2016-08-01T00:54:36.327Z,67.84
2016-08-01T00:55:37.470Z,67.81
2016-08-01T00:56:26.611Z,67.63
2016-08-01T00:57:27.653Z,67.67
2016-08-01T00:58:35.724Z,67.59
2016-08-01T00:59:49.454Z,67.62
2016-08-01T01:00:32.076Z,67.67
2016-08-01T01:01:31.943Z,67.74
2016-08-01T01:02:36.472Z,67.42
2016-08-01T01:03:27.825Z,67.48
2016-08-01T01:04:33.067Z,66.42
2016-08-01T01:05:31.440Z,66.19
2016-08-01T01:06:38.565Z,66.53
2016-08-01T01:07:48.813Z,67.14
2016-08-01T01:08:20.257Z,67.15
2016-08-01T01:09:25.115Z,67.11
2016-08-01T01:10:32.111Z,67.20
2016-08-01T01:11:26.750Z,67.10
2016-08-01T01:12:33.410Z,67.27
2016-08-01T01:13:53.062Z,67.22
2016-08-01T01:14:31.518Z,67.18
2016-08-01T01:15:27.588Z,67.14
2016-08-01T01:16:37.636Z,66.09
2016-08-01T01:17:36.383Z,65.92
2016-08-01T01:18:26.117Z,65.80
2016-08-01T01:19:32.835Z,65.68
2016-08-01T01:20:39.355Z,65.57
2016-08-01T01:21:34.171Z,65.48
2016-08-01T01:22:36.397Z,65.75
2016-08-01T01:23:38.125Z,66.72
2016-08-01T01:24:39.777Z,66.89
2016-08-01T01:25:56.822Z,66.87
2016-08-01T01:26:40.536Z,66.90
2016-08-01T01:27:37.493Z,67.02
2016-08-01T01:28:32.818Z,66.98
2016-08-01T01:29:35.285Z,66.67
2016-08-01T01:30:37.679Z,66.40
2016-08-01T01:31:35.100Z,66.39
2016-08-01T01:32:32.111Z,66.00
2016-08-01T01:34:37.304Z,66.23
2016-08-01T01:35:51.163Z,66.09
2016-08-01T01:36:32.016Z,64.88
2016-08-01T01:37:37.643Z,64.68
2016-08-01T01:38:32.460Z,65.05
2016-08-01T01:39:37.783Z,65.68
2016-08-01T01:40:49.806Z,65.80
2016-08-01T01:41:37.315Z,65.89
2016-08-01T01:42:37.097Z,65.82
2016-08-01T01:43:36.557Z,65.89
2016-08-01T01:44:38.967Z,66.00
2016-08-01T01:45:47.598Z,66.02
2016-08-01T01:46:36.333Z,66.05
2016-08-01T01:47:27.309Z,66.00
2016-08-01T01:49:46.090Z,65.90
2016-08-01T01:50:33.532Z,65.88
2016-08-01T01:51:34.534Z,65.79
2016-08-01T01:52:45.114Z,65.75
2016-08-01T01:53:33.048Z,65.65
2016-08-01T01:54:31.913Z,65.77
2016-08-01T01:55:40.011Z,65.65
2016-08-01T01:56:32.063Z,65.59
2016-08-01T01:57:41.796Z,65.72
2016-08-01T01:58:37.215Z,65.75
2016-08-01T01:59:39.550Z,65.76
2016-08-01T02:00:43.348Z,65.71
2016-08-01T02:01:54.013Z,65.74
2016-08-01T02:02:33.549Z,65.61
2016-08-01T02:03:30.710Z,65.80
2016-08-01T02:04:33.790Z,65.77
2016-08-01T02:05:48.733Z,65.82
2016-08-01T02:06:41.064Z,65.83
2016-08-01T02:07:37.414Z,65.78
2016-08-01T02:08:38.510Z,65.93
2016-08-01T02:09:32.797Z,65.84
2016-08-01T02:10:39.416Z,65.81
2016-08-01T02:11:34.416Z,65.60
2016-08-01T02:12:12.414Z,65.69
2016-08-01T02:13:36.551Z,65.65
2016-08-01T02:14:40.056Z,65.63
2016-08-01T02:15:37.602Z,65.53
2016-08-01T02:16:34.320Z,65.38
2016-08-01T02:17:42.456Z,65.40
2016-08-01T02:18:34.089Z,65.80
2016-08-01T02:19:42.037Z,65.66
2016-08-01T02:20:38.344Z,65.38
2016-08-01T02:21:54.930Z,65.41
2016-08-01T02:22:29.002Z,65.23
2016-08-01T02:23:30.603Z,64.07
2016-08-01T02:24:37.270Z,63.97
2016-08-01T02:25:33.653Z,63.70
2016-08-01T02:26:37.309Z,63.84
2016-08-01T02:27:50.357Z,64.72
2016-08-01T02:28:38.064Z,64.77
2016-08-01T02:29:34.276Z,64.93
2016-08-01T02:30:38.045Z,65.05
2016-08-01T02:31:33.291Z,65.04
2016-08-01T02:32:38.349Z,64.87
2016-08-01T02:33:30.424Z,64.65
2016-08-01T02:34:39.261Z,64.78
2016-08-01T02:35:37.917Z,65.00
2016-08-01T02:36:50.413Z,65.08
2016-08-01T02:37:50.508Z,65.19
2016-08-01T02:38:38.717Z,65.31
2016-08-01T02:39:38.197Z,65.28
2016-08-01T02:40:32.015Z,65.34
2016-08-01T02:41:42.003Z,65.36
2016-08-01T02:42:32.362Z,65.41
2016-08-01T02:43:31.804Z,65.55
2016-08-01T02:44:30.145Z,65.72
2016-08-01T02:45:30.321Z,65.80
2016-08-01T02:46:32.565Z,65.75
2016-08-01T02:47:50.263Z,65.70
2016-08-01T02:48:32.616Z,65.68
2016-08-01T02:49:49.993Z,65.81
2016-08-01T02:50:36.387Z,66.13
2016-08-01T02:51:37.629Z,66.08
2016-08-01T02:52:33.025Z,66.04
2016-08-01T02:53:41.575Z,66.05
2016-08-01T02:54:33.677Z,66.04
2016-08-01T02:55:48.319Z,66.03
2016-08-01T02:56:38.563Z,65.89
2016-08-01T02:57:55.326Z,65.72
2016-08-01T02:58:33.564Z,65.64
2016-08-01T02:59:41.160Z,65.49
2016-08-01T03:00:33.421Z,65.62
2016-08-01T03:01:37.084Z,65.78
2016-08-01T03:02:31.856Z,65.64
2016-08-01T03:03:36.060Z,65.74
2016-08-01T03:04:31.333Z,65.52
2016-08-01T03:05:42.339Z,65.53
2016-08-01T03:06:42.108Z,65.50
2016-08-01T03:07:37.434Z,65.69
2016-08-01T03:08:30.476Z,65.66
2016-08-01T03:09:36.945Z,65.64
2016-08-01T03:10:34.449Z,65.60
2016-08-01T03:11:31.946Z,65.53
2016-08-01T03:12:44.381Z,65.56
2016-08-01T03:13:37.697Z,65.47
2016-08-01T03:14:39.570Z,65.64
2016-08-01T03:15:38.166Z,65.52
2016-08-01T03:16:40.158Z,65.67
2016-08-01T03:17:32.844Z,65.58
2016-08-01T03:18:39.243Z,65.63
2016-08-01T03:19:39.159Z,65.56
2016-08-01T03:20:31.442Z,65.31
2016-08-01T03:21:38.361Z,64.36
2016-08-01T03:22:36.696Z,64.23
2016-08-01T03:23:33.664Z,64.20
2016-08-01T03:24:36.913Z,64.25
2016-08-01T03:25:37.225Z,65.15
2016-08-01T03:26:37.753Z,65.35
2016-08-01T03:27:31.232Z,65.26
2016-08-01T03:28:36.064Z,65.44
2016-08-01T03:29:38.225Z,65.49
2016-08-01T03:30:37.691Z,65.52
2016-08-01T03:31:31.280Z,65.41
2016-08-01T03:32:39.357Z,65.22
2016-08-01T03:33:35.192Z,64.41
2016-08-01T03:34:32.074Z,65.05
2016-08-01T03:35:30.209Z,65.22
2016-08-01T03:36:32.284Z,65.42
2016-08-01T03:37:38.322Z,65.41
2016-08-01T03:38:31.496Z,65.49
2016-08-01T03:39:42.137Z,65.66
2016-08-01T03:40:32.128Z,65.62
2016-08-01T03:41:30.404Z,65.47
2016-08-01T03:42:32.973Z,65.54
2016-08-01T03:43:37.379Z,65.46
2016-08-01T03:44:34.693Z,65.34
2016-08-01T03:45:40.461Z,65.40
2016-08-01T03:46:32.289Z,65.36
2016-08-01T03:47:31.556Z,65.17
2016-08-01T03:48:37.983Z,64.36
2016-08-01T03:49:36.819Z,64.19
2016-08-01T03:50:33.537Z,65.10
2016-08-01T03:51:33.162Z,65.27
2016-08-01T03:52:32.395Z,65.43
2016-08-01T03:53:39.216Z,65.53
2016-08-01T03:54:33.474Z,65.63
2016-08-01T03:55:33.461Z,65.77
2016-08-01T03:56:50.038Z,65.67
2016-08-01T03:57:33.530Z,65.39
2016-08-01T03:58:33.047Z,64.69
2016-08-01T03:59:29.429Z,65.38
2016-08-01T04:00:41.976Z,65.61
2016-08-01T04:01:36.884Z,65.59
2016-08-01T04:02:32.014Z,65.51
2016-08-01T04:03:49.044Z,65.48
2016-08-01T04:04:44.339Z,65.29
2016-08-01T04:05:33.495Z,65.24
2016-08-01T04:06:39.329Z,65.21
2016-08-01T04:07:54.812Z,65.22
2016-08-01T04:08:48.159Z,65.23
2016-08-01T04:09:48.573Z,65.25
2016-08-01T04:10:38.323Z,65.15
2016-08-01T04:11:37.611Z,65.06
2016-08-01T04:12:37.055Z,65.14
2016-08-01T04:13:37.196Z,65.12
2016-08-01T04:14:39.093Z,65.20
2016-08-01T04:15:37.012Z,65.22
2016-08-01T04:16:33.595Z,65.18
2016-08-01T04:17:39.935Z,65.19
2016-08-01T04:18:42.064Z,65.24
2016-08-01T04:19:32.780Z,65.18
2016-08-01T04:20:37.846Z,65.49
2016-08-01T04:21:33.484Z,65.42
2016-08-01T04:22:36.934Z,65.36
2016-08-01T04:23:41.395Z,65.16
2016-08-01T04:24:40.347Z,65.07
2016-08-01T04:26:06.941Z,64.94
2016-08-01T04:26:32.348Z,65.03
2016-08-01T04:27:34.298Z,64.97
2016-08-01T04:28:50.149Z,64.89
2016-08-01T04:29:38.752Z,64.90
2016-08-01T04:30:47.553Z,65.05
2016-08-01T04:31:43.691Z,65.20
2016-08-01T04:32:32.289Z,65.20
2016-08-01T04:33:42.545Z,65.30
2016-08-01T04:34:38.505Z,64.30
2016-08-01T04:35:39.363Z,64.39
2016-08-01T04:36:32.819Z,64.85
2016-08-01T04:37:39.175Z,65.04
2016-08-01T04:38:32.308Z,65.07
2016-08-01T04:39:33.700Z,65.20
2016-08-01T04:40:39.132Z,65.22
2016-08-01T04:41:31.990Z,65.47
2016-08-01T04:42:36.822Z,65.01
2016-08-01T04:43:38.242Z,65.03
2016-08-01T04:44:32.051Z,65.00
2016-08-01T04:45:39.100Z,65.04
2016-08-01T04:46:32.301Z,65.18
2016-08-01T04:47:32.123Z,65.21
2016-08-01T04:48:45.404Z,65.07
2016-08-01T04:49:36.952Z,65.00
2016-08-01T04:50:34.246Z,64.90
2016-08-01T04:51:47.609Z,64.78
2016-08-01T04:52:30.347Z,64.72
2016-08-01T04:53:34.181Z,64.99
2016-08-01T04:54:32.201Z,65.09
2016-08-01T04:55:37.204Z,65.19
2016-08-01T04:56:39.129Z,65.16
2016-08-01T04:57:38.938Z,65.13
2016-08-01T04:58:42.352Z,65.24
2016-08-01T04:59:27.943Z,65.16
2016-08-01T05:00:33.802Z,65.31
2016-08-01T05:01:33.985Z,65.47
2016-08-01T05:02:36.940Z,65.51
2016-08-01T05:03:27.505Z,65.33
2016-08-01T05:04:32.078Z,65.36
2016-08-01T05:05:32.039Z,65.40
2016-08-01T05:06:38.913Z,65.30
2016-08-01T05:07:32.383Z,64.62
2016-08-01T05:08:33.170Z,64.68
2016-08-01T05:09:29.862Z,64.75
2016-08-01T05:10:39.543Z,65.09
2016-08-01T05:11:40.496Z,65.17
2016-08-01T05:12:33.594Z,65.10
2016-08-01T05:13:39.309Z,65.54
2016-08-01T05:14:32.432Z,65.80
2016-08-01T05:15:30.924Z,65.51
2016-08-01T05:16:34.979Z,65.35
2016-08-01T05:17:37.593Z,65.27
2016-08-01T05:18:33.174Z,65.21
2016-08-01T05:19:30.325Z,65.24
2016-08-01T05:20:32.454Z,65.17
2016-08-01T05:21:54.432Z,65.26
2016-08-01T05:22:37.431Z,65.25
2016-08-01T05:23:38.452Z,65.50
2016-08-01T05:24:33.811Z,65.26
2016-08-01T05:25:33.937Z,65.46
2016-08-01T05:26:36.386Z,65.47
2016-08-01T05:27:33.533Z,65.22
2016-08-01T05:28:42.678Z,65.15
2016-08-01T05:29:38.646Z,65.14
2016-08-01T05:30:34.597Z,65.22
2016-08-01T05:31:39.189Z,65.22
2016-08-01T05:32:51.106Z,65.19
2016-08-01T05:33:37.268Z,65.16
2016-08-01T05:34:39.457Z,65.18
2016-08-01T05:35:33.840Z,65.25
2016-08-01T05:36:32.930Z,65.17
2016-08-01T05:37:41.749Z,65.14
2016-08-01T05:38:39.960Z,65.23
2016-08-01T05:39:42.359Z,65.70
2016-08-01T05:40:33.064Z,64.33
2016-08-01T05:41:33.148Z,64.22
2016-08-01T05:42:37.994Z,64.04
2016-08-01T05:43:36.974Z,63.94
2016-08-01T05:44:38.140Z,63.92
2016-08-01T05:45:32.554Z,63.82
2016-08-01T05:46:41.123Z,63.84
2016-08-01T05:47:33.655Z,63.87
2016-08-01T05:48:38.593Z,63.74
2016-08-01T05:49:32.359Z,63.88
2016-08-01T05:50:32.264Z,64.11
2016-08-01T05:51:44.472Z,63.97
2016-08-01T05:52:39.674Z,65.10
2016-08-01T05:53:37.800Z,65.08
2016-08-01T05:54:36.395Z,64.90
2016-08-01T05:55:27.873Z,65.06
2016-08-01T05:56:38.924Z,65.03
2016-08-01T05:57:31.424Z,65.14
2016-08-01T05:58:33.566Z,64.97
2016-08-01T05:59:38.853Z,65.08
2016-08-01T06:00:37.914Z,65.22
2016-08-01T06:01:37.293Z,65.26
2016-08-01T06:02:43.579Z,65.05
2016-08-01T06:03:50.425Z,65.00
2016-08-01T06:04:47.311Z,64.94
2016-08-01T06:05:38.133Z,64.98
2016-08-01T06:06:32.308Z,65.04
2016-08-01T06:07:37.785Z,64.92
2016-08-01T06:08:30.413Z,64.96
2016-08-01T06:09:33.423Z,64.88
2016-08-01T06:10:31.974Z,65.00
2016-08-01T06:11:30.204Z,64.87
2016-08-01T06:12:32.195Z,64.88
2016-08-01T06:13:32.552Z,64.80
2016-08-01T06:14:38.644Z,64.90
2016-08-01T06:15:37.654Z,64.96
2016-08-01T06:16:39.036Z,64.85
2016-08-01T06:17:32.942Z,65.03
2016-08-01T06:18:37.445Z,64.85
2016-08-01T06:20:38.387Z,64.78
2016-08-01T06:21:50.697Z,64.75
2016-08-01T06:22:50.431Z,64.73
2016-08-01T06:23:57.031Z,64.59
2016-08-01T06:24:47.082Z,64.53
2016-08-01T06:25:48.826Z,64.59
2016-08-01T06:26:31.975Z,64.68
2016-08-01T06:27:39.086Z,63.56
2016-08-01T06:28:51.002Z,64.17
2016-08-01T06:29:50.891Z,64.27
2016-08-01T06:30:40.576Z,64.30
2016-08-01T06:31:39.230Z,64.19
2016-08-01T06:32:54.876Z,64.10
2016-08-01T06:33:53.528Z,63.85
2016-08-01T06:34:50.448Z,63.68
2016-08-01T06:35:42.763Z,63.65
2016-08-01T06:36:40.146Z,63.69
2016-08-01T06:37:42.358Z,62.48
2016-08-01T06:38:47.164Z,62.17
2016-08-01T06:39:55.469Z,61.97
2016-08-01T06:40:39.682Z,61.96
2016-08-01T06:42:04.436Z,61.89
2016-08-01T06:42:48.694Z,62.93
2016-08-01T06:43:56.136Z,63.34
2016-08-01T06:44:38.742Z,63.91
2016-08-01T06:45:39.365Z,63.51
2016-08-01T06:46:38.147Z,63.29
2016-08-01T06:47:54.501Z,64.05
2016-08-01T06:48:45.248Z,63.90
2016-08-01T06:49:46.012Z,63.88
2016-08-01T06:50:38.789Z,63.79
2016-08-01T06:51:33.283Z,64.13
2016-08-01T06:52:16.836Z,64.26
2016-08-01T06:53:39.405Z,64.17
2016-08-01T06:54:51.467Z,64.46
2016-08-01T06:55:38.801Z,64.73
2016-08-01T06:56:48.048Z,63.91
2016-08-01T06:57:33.730Z,64.57
2016-08-01T06:58:32.464Z,64.88
2016-08-01T06:59:37.058Z,65.22
2016-08-01T07:00:32.884Z,65.12
2016-08-01T07:01:56.613Z,65.38
2016-08-01T07:02:27.929Z,65.45
2016-08-01T07:03:32.351Z,65.40
2016-08-01T07:05:34.808Z,65.46
2016-08-01T07:06:36.732Z,65.38
2016-08-01T07:07:37.457Z,65.36
2016-08-01T07:08:47.373Z,65.33
2016-08-01T07:09:33.230Z,65.28
2016-08-01T07:10:30.877Z,65.21
2016-08-01T07:11:39.321Z,65.16
2016-08-01T07:12:28.831Z,65.10
2016-08-01T07:13:37.365Z,65.09
2016-08-01T07:14:59.081Z,64.92
2016-08-01T07:15:30.855Z,64.78
2016-08-01T07:16:43.325Z,64.76
2016-08-01T07:17:14.418Z,64.73
2016-08-01T07:18:49.695Z,64.62
2016-08-01T07:19:33.449Z,64.50
2016-08-01T07:20:40.476Z,64.41
2016-08-01T07:21:33.049Z,64.36
2016-08-01T07:22:36.530Z,64.48
2016-08-01T07:23:29.736Z,64.41
2016-08-01T07:24:34.678Z,64.35
2016-08-01T07:25:51.291Z,64.28
2016-08-01T07:26:51.579Z,64.19
2016-08-01T07:27:50.585Z,64.23
2016-08-01T07:28:57.405Z,64.07
2016-08-01T07:29:15.357Z,63.99
2016-08-01T07:30:36.567Z,64.05
2016-08-01T07:31:32.212Z,64.05
2016-08-01T07:32:38.469Z,63.99
2016-08-01T07:33:49.463Z,63.92
2016-08-01T07:34:36.036Z,63.91
2016-08-01T07:35:37.449Z,63.84
2016-08-01T07:36:44.376Z,63.86
2016-08-01T07:37:50.965Z,63.86
2016-08-01T07:38:46.753Z,63.82
2016-08-01T07:39:39.780Z,63.76
2016-08-01T07:40:40.491Z,63.71
2016-08-01T07:41:40.669Z,63.71
2016-08-01T07:42:39.022Z,63.64
2016-08-01T07:43:37.306Z,63.57
2016-08-01T07:44:40.029Z,63.55
2016-08-01T07:45:38.145Z,63.50
2016-08-01T07:46:33.366Z,63.44
2016-08-01T07:47:38.962Z,63.41
2016-08-01T07:48:47.607Z,63.41
2016-08-01T07:49:35.774Z,63.40
2016-08-01T07:50:52.081Z,63.39
2016-08-01T07:51:46.911Z,63.32
2016-08-01T07:52:47.751Z,63.22
2016-08-01T07:53:42.766Z,63.28
2016-08-01T07:54:33.800Z,63.27
2016-08-01T07:55:32.658Z,62.24
2016-08-01T07:56:39.026Z,61.98
2016-08-01T07:57:24.918Z,61.86
2016-08-01T07:58:46.479Z,61.76
2016-08-01T07:59:39.581Z,61.72
2016-08-01T08:00:41.592Z,61.69
2016-08-01T08:01:40.049Z,61.62
2016-08-01T08:02:43.456Z,61.66
2016-08-01T08:03:50.057Z,61.56
2016-08-01T08:04:37.748Z,61.55
2016-08-01T08:05:38.044Z,61.88
2016-08-01T08:06:41.261Z,62.49
2016-08-01T08:07:38.795Z,62.63
2016-08-01T08:08:42.262Z,62.66
2016-08-01T08:09:41.340Z,62.78
2016-08-01T08:10:26.190Z,62.86
2016-08-01T08:11:33.188Z,62.76
2016-08-01T08:12:30.888Z,62.66
2016-08-01T08:13:46.257Z,62.64
2016-08-01T08:14:35.836Z,62.67
2016-08-01T08:15:25.566Z,62.49
2016-08-01T08:16:30.619Z,61.63
2016-08-01T08:17:36.762Z,62.39
2016-08-01T08:18:46.666Z,62.49
2016-08-01T08:20:02.839Z,62.56
2016-08-01T08:20:50.116Z,62.57
2016-08-01T08:21:13.657Z,62.55
2016-08-01T08:22:37.883Z,62.50
2016-08-01T08:23:21.138Z,62.56
2016-08-01T08:24:39.082Z,62.54
2016-08-01T08:25:33.534Z,62.51
2016-08-01T08:26:54.452Z,62.50
2016-08-01T08:27:38.363Z,62.44
2016-08-01T08:28:38.916Z,62.46
2016-08-01T08:29:56.027Z,62.55
2016-08-01T08:30:45.947Z,62.57
2016-08-01T08:31:47.259Z,62.59
2016-08-01T08:32:42.340Z,62.48
2016-08-01T08:33:46.520Z,62.50
2016-08-01T08:34:20.356Z,62.49
2016-08-01T08:35:35.264Z,62.40
2016-08-01T08:36:12.750Z,62.42
2016-08-01T08:37:41.075Z,62.42
2016-08-01T08:38:42.458Z,62.34
2016-08-01T08:39:58.606Z,62.34
2016-08-01T08:40:39.896Z,62.23
2016-08-01T08:41:34.546Z,62.14
2016-08-01T08:42:32.725Z,62.15
2016-08-01T08:43:51.542Z,62.19
2016-08-01T08:44:33.837Z,62.29
2016-08-01T08:45:40.177Z,62.34
2016-08-01T08:46:33.154Z,62.31
2016-08-01T08:47:35.467Z,62.28
2016-08-01T08:48:37.470Z,62.31
2016-08-01T08:49:33.608Z,61.36
2016-08-01T08:50:30.293Z,62.04
2016-08-01T08:51:44.168Z,62.13
2016-08-01T08:52:40.494Z,62.14
2016-08-01T08:53:36.052Z,62.13
2016-08-01T08:54:41.079Z,62.07
2016-08-01T08:55:39.310Z,61.98
2016-08-01T08:56:39.134Z,61.95
2016-08-01T08:57:26.860Z,61.92
2016-08-01T08:58:33.893Z,61.90
2016-08-01T08:59:27.931Z,61.98
2016-08-01T09:00:26.410Z,62.02
2016-08-01T09:01:33.469Z,62.10
2016-08-01T09:02:38.489Z,62.14
2016-08-01T09:03:33.747Z,62.17
2016-08-01T09:04:39.131Z,62.17
2016-08-01T09:05:42.100Z,62.17
2016-08-01T09:06:51.968Z,62.15
2016-08-01T09:07:40.128Z,62.21
2016-08-01T09:08:21.897Z,62.19
2016-08-01T09:09:41.958Z,62.17
2016-08-01T09:10:52.058Z,62.18
2016-08-01T09:11:19.674Z,62.17
2016-08-01T09:12:12.557Z,62.17
2016-08-01T09:13:33.677Z,61.15
2016-08-01T09:14:45.172Z,61.20
2016-08-01T09:15:40.632Z,61.77
2016-08-01T09:16:43.139Z,61.90
2016-08-01T09:17:40.892Z,61.95
2016-08-01T09:18:36.481Z,61.92
2016-08-01T09:19:28.760Z,61.98
2016-08-01T09:21:36.201Z,61.93
2016-08-01T09:22:33.940Z,61.93
2016-08-01T09:23:36.819Z,61.91
2016-08-01T09:24:41.415Z,61.87
2016-08-01T09:25:48.382Z,61.85
2016-08-01T09:26:45.636Z,61.87
2016-08-01T09:27:39.433Z,61.85
2016-08-01T09:28:46.648Z,61.87
2016-08-01T09:29:22.585Z,61.83
2016-08-01T09:30:39.405Z,61.78
2016-08-01T09:31:51.070Z,61.70
2016-08-01T09:32:38.041Z,61.69
2016-08-01T09:33:38.584Z,61.65
2016-08-01T09:34:18.824Z,61.64
2016-08-01T09:35:13.180Z,61.60
2016-08-01T09:36:34.010Z,61.52
2016-08-01T09:37:13.131Z,61.53
2016-08-01T09:38:49.882Z,61.49
2016-08-01T09:39:19.391Z,61.47
2016-08-01T09:41:13.110Z,61.49
2016-08-01T09:41:39.575Z,61.45
2016-08-01T09:42:32.486Z,61.40
2016-08-01T09:43:43.892Z,61.37
2016-08-01T09:44:38.439Z,61.40
2016-08-01T09:45:32.935Z,61.38
2016-08-01T09:46:28.081Z,61.42
2016-08-01T09:47:42.651Z,61.36
2016-08-01T09:48:50.970Z,61.35
2016-08-01T09:49:29.415Z,61.32
2016-08-01T09:50:17.895Z,61.30
2016-08-01T09:51:52.950Z,61.29
2016-08-01T09:52:39.119Z,61.29
2016-08-01T09:53:47.686Z,61.26
2016-08-01T09:54:27.751Z,61.19
2016-08-01T09:55:33.412Z,61.19
2016-08-01T09:56:35.866Z,61.14
2016-08-01T09:57:15.816Z,61.10
2016-08-01T09:58:20.954Z,61.13
2016-08-01T09:59:46.728Z,61.10
2016-08-01T10:00:15.847Z,61.07
2016-08-01T10:01:34.081Z,61.04
2016-08-01T10:02:38.657Z,61.06
2016-08-01T10:03:49.713Z,61.03
2016-08-01T10:04:28.707Z,61.00
2016-08-01T10:05:12.545Z,61.01
2016-08-01T10:06:12.827Z,60.03
2016-08-01T10:07:43.335Z,59.80
2016-08-01T10:08:34.513Z,59.72
2016-08-01T10:09:40.358Z,59.61
2016-08-01T10:10:50.871Z,59.51
2016-08-01T10:11:48.853Z,59.77
2016-08-01T10:12:38.046Z,60.44
2016-08-01T10:13:27.540Z,60.59
2016-08-01T10:14:39.223Z,60.67
2016-08-01T10:15:27.882Z,60.65
2016-08-01T10:16:37.527Z,60.71
2016-08-01T10:17:42.921Z,60.70
2016-08-01T10:18:30.620Z,60.73
2016-08-01T10:19:31.361Z,60.75
2016-08-01T10:20:42.236Z,60.80
2016-08-01T10:21:45.705Z,60.78
2016-08-01T10:22:39.397Z,60.72
2016-08-01T10:23:30.538Z,60.75
2016-08-01T10:24:39.984Z,60.75
2016-08-01T10:25:44.577Z,60.70
2016-08-01T10:26:49.565Z,60.76
2016-08-01T10:27:38.267Z,60.75
2016-08-01T10:28:28.823Z,60.75
2016-08-01T10:29:14.055Z,60.73
2016-08-01T10:30:15.082Z,60.75
2016-08-01T10:31:31.449Z,60.72
2016-08-01T10:32:25.459Z,60.72
2016-08-01T10:33:15.450Z,60.74
2016-08-01T10:34:39.224Z,60.75
2016-08-01T10:35:39.893Z,60.81
2016-08-01T10:36:58.336Z,60.75
2016-08-01T10:37:33.778Z,60.80
2016-08-01T10:38:53.961Z,60.82
2016-08-01T10:39:49.372Z,60.81
2016-08-01T10:40:16.253Z,60.77
2016-08-01T10:41:15.848Z,60.78
2016-08-01T10:42:21.628Z,60.78
2016-08-01T10:43:15.342Z,60.89
2016-08-01T10:44:17.616Z,60.86
2016-08-01T10:45:17.356Z,60.88
2016-08-01T10:46:19.154Z,60.86
2016-08-01T10:47:16.616Z,60.93
2016-08-01T10:48:19.401Z,60.88
2016-08-01T10:49:16.292Z,60.94
2016-08-01T10:50:16.453Z,60.86
2016-08-01T10:51:18.064Z,60.89
2016-08-01T10:52:18.681Z,60.87
2016-08-01T10:53:18.174Z,60.82
2016-08-01T10:54:14.061Z,60.78
2016-08-01T10:55:21.243Z,60.79
2016-08-01T10:56:16.334Z,60.53
2016-08-01T10:57:16.956Z,59.72
2016-08-01T10:58:16.839Z,59.56
2016-08-01T10:59:17.570Z,59.45
2016-08-01T11:00:17.415Z,59.73
2016-08-01T11:01:17.183Z,60.34
2016-08-01T11:02:16.555Z,60.47
2016-08-01T11:03:17.353Z,60.52
2016-08-01T11:04:16.274Z,60.51
2016-08-01T11:05:15.807Z,60.49
2016-08-01T11:06:16.901Z,60.49
2016-08-01T11:07:17.115Z,60.50
2016-08-01T11:08:18.868Z,60.52
2016-08-01T11:09:18.133Z,60.52
2016-08-01T11:10:15.494Z,60.54
2016-08-01T11:11:17.670Z,60.60
2016-08-01T11:12:18.103Z,60.54
2016-08-01T11:13:15.148Z,60.55
2016-08-01T11:14:16.281Z,60.49
2016-08-01T11:15:15.767Z,60.53
2016-08-01T11:16:17.004Z,60.47
2016-08-01T11:17:16.814Z,60.45
2016-08-01T11:18:17.149Z,60.44
2016-08-01T11:19:16.168Z,60.41
2016-08-01T11:20:16.743Z,60.50
2016-08-01T11:21:16.272Z,60.44
2016-08-01T11:22:16.853Z,60.41
2016-08-01T11:23:19.646Z,60.19
2016-08-01T11:24:18.602Z,59.49
2016-08-01T11:25:16.182Z,59.32
2016-08-01T11:26:13.484Z,60.12
2016-08-01T11:27:15.928Z,60.33
2016-08-01T11:28:17.072Z,60.41
2016-08-01T11:29:15.584Z,60.47
2016-08-01T11:30:15.986Z,60.49
2016-08-01T11:31:15.010Z,60.49
2016-08-01T11:32:15.814Z,60.52
2016-08-01T11:33:18.059Z,60.51
2016-08-01T11:34:15.841Z,60.55
2016-08-01T11:35:16.434Z,60.59
2016-08-01T11:36:16.301Z,60.54
2016-08-01T11:37:17.342Z,60.55
2016-08-01T11:38:17.900Z,60.55
2016-08-01T11:39:16.049Z,60.57
2016-08-01T11:40:15.984Z,60.59
2016-08-01T11:41:16.623Z,60.56
2016-08-01T11:42:17.984Z,60.57
2016-08-01T11:43:17.370Z,60.59
2016-08-01T11:44:17.741Z,60.64
2016-08-01T11:45:17.608Z,60.60
2016-08-01T11:46:18.748Z,60.58
2016-08-01T11:47:17.526Z,60.60
2016-08-01T11:48:17.874Z,60.61
2016-08-01T11:49:16.118Z,60.58
2016-08-01T11:50:16.631Z,60.59
2016-08-01T11:51:17.700Z,60.54
2016-08-01T11:52:17.190Z,60.50
2016-08-01T11:53:17.163Z,60.37
2016-08-01T11:54:18.814Z,59.53
2016-08-01T11:55:17.414Z,59.67
2016-08-01T11:56:16.180Z,60.17
2016-08-01T11:57:15.952Z,60.33
2016-08-01T11:58:17.788Z,60.42
2016-08-01T11:59:19.149Z,60.51
2016-08-01T12:00:15.985Z,60.57
2016-08-01T12:01:18.913Z,60.38
2016-08-01T12:02:19.684Z,59.67
2016-08-01T12:03:19.837Z,59.48
2016-08-01T12:04:17.552Z,59.40
2016-08-01T12:05:17.144Z,59.36
2016-08-01T12:06:17.435Z,59.29
2016-08-01T12:07:17.543Z,60.21
2016-08-01T12:08:17.444Z,60.43
2016-08-01T12:09:20.671Z,60.53
2016-08-01T12:10:16.736Z,60.56
2016-08-01T12:11:17.414Z,60.55
2016-08-01T12:12:21.586Z,60.56
2016-08-01T12:13:16.992Z,60.60
2016-08-01T12:14:17.095Z,60.59
2016-08-01T12:15:16.127Z,60.58
2016-08-01T12:16:17.184Z,60.58
2016-08-01T12:17:14.372Z,60.58
2016-08-01T12:18:15.992Z,60.54
2016-08-01T12:19:17.035Z,60.53
2016-08-01T12:20:16.949Z,60.51
2016-08-01T12:21:15.704Z,60.50
2016-08-01T12:22:16.528Z,60.52
2016-08-01T12:23:19.374Z,60.52
2016-08-01T12:24:17.578Z,60.52
2016-08-01T12:25:16.171Z,60.46
2016-08-01T12:26:14.141Z,60.45
2016-08-01T12:27:18.118Z,60.42
2016-08-01T12:28:17.857Z,60.46
2016-08-01T12:29:15.356Z,60.24
2016-08-01T12:30:17.886Z,59.82
2016-08-01T12:31:15.686Z,60.32
2016-08-01T12:32:16.958Z,60.47
2016-08-01T12:33:15.460Z,60.44
2016-08-01T12:34:15.826Z,60.53
2016-08-01T12:35:13.790Z,60.55
2016-08-01T12:36:17.765Z,60.60
2016-08-01T12:37:15.254Z,60.53
2016-08-01T12:38:18.509Z,60.46
2016-08-01T12:39:13.984Z,60.48
2016-08-01T12:40:16.516Z,60.47
2016-08-01T12:41:15.880Z,60.37
2016-08-01T12:42:17.451Z,60.41
2016-08-01T12:43:17.819Z,60.41
2016-08-01T12:44:19.815Z,60.37
2016-08-01T12:45:16.395Z,60.37
2016-08-01T12:46:16.092Z,60.34
2016-08-01T12:47:14.588Z,60.30
2016-08-01T12:48:15.946Z,60.28
2016-08-01T12:49:16.344Z,60.30
2016-08-01T12:50:15.662Z,60.28
2016-08-01T12:52:16.172Z,60.22
2016-08-01T12:53:18.073Z,60.24
2016-08-01T12:54:15.888Z,60.18
2016-08-01T12:55:17.846Z,60.18
2016-08-01T12:56:18.563Z,60.14
2016-08-01T12:57:16.174Z,60.17
2016-08-01T12:58:16.612Z,60.19
2016-08-01T12:59:18.736Z,60.24